Time;durP1;ratioP1;P1;durP2;ratioP2;P2;SDS_P1;SDS_P2;PMS_P1;PMS_P2;Temp;Humidity;BMP_temperature;BMP_pressure;BME280_temperature;BME280_humidity;BME280_pressure;Samples;Min_cycle;Max_cycle;Signal;HPM_P1;HPM_P2
2022/08/29 00:01:00;;;;;;;;;;;;;;;23.07;52.31;101392.16;5056452;28;2743;-59
2022/08/29 00:03:27;;;;;;;;;;;;;;;23.08;52.06;101393.66;5055040;28;3646;-59
2022/08/29 00:05:54;;;;;;;;;;;;;;;23.07;52.12;101392.16;5053296;28;2648;-59
2022/08/29 00:08:21;;;;;;;;;;;;;;;23.07;52.46;101392.91;5052972;28;2975;-59
2022/08/29 00:10:47;;;;;;;;;;;;;;;23.06;52.06;101399.34;5052881;28;2960;-59
2022/08/29 00:13:14;;;;;;;;;;;;;;;23.05;52.27;101392.81;5053078;28;2737;-59
2022/08/29 00:15:40;;;;;;;;;;;;;;;23.06;52.20;101385.63;5051577;28;2832;-59
2022/08/29 00:18:10;;;;;;;;;;;;;;;23.05;52.02;101392.81;5051536;28;2856;-59
2022/08/29 00:20:37;;;;;;;;;;;;;;;23.05;52.02;101392.06;5056812;28;2857;-59
2022/08/29 00:23:03;;;;;;;;;;;;;;;23.05;52.34;101392.06;5055358;28;2812;-59
2022/08/29 00:25:30;;;;;;;;;;;;;;;23.03;52.27;101395.63;5060398;28;2880;-58
2022/08/29 00:27:56;;;;;;;;;;;;;;;23.03;52.05;101389.09;5053594;28;2775;-59
2022/08/29 00:30:23;;;;;;;;;;;;;;;22.99;51.88;101390.38;5061670;28;2779;-59
2022/08/29 00:32:49;;;;;;;;;;;;;;;23.02;51.94;101390.47;5058817;28;3034;-59
2022/08/29 00:35:17;;;;;;;;;;;;;;;23.02;51.94;101387.59;5056472;28;2870;-59
2022/08/29 00:37:43;;;;;;;;;;;;;;;23.02;52.02;101394.13;5053863;28;2829;-59
2022/08/29 00:40:11;;;;;;;;;;;;;;;23.00;52.06;101391.91;5056030;28;2736;-59
2022/08/29 00:42:37;;;;;;;;;;;;;;;23.00;52.04;101388.28;5053912;28;2793;-58
2022/08/29 00:45:04;;;;;;;;;;;;;;;22.98;52.08;101388.88;5051346;28;2829;-59
2022/08/29 00:47:35;;;;;;;;;;;;;;;22.98;51.81;101383.13;5054474;28;2787;-59
2022/08/29 00:50:01;;;;;;;;;;;;;;;22.98;51.56;101386.00;5053910;28;2863;-59
2022/08/29 00:52:40;;;;;;;;;;;;;;;22.97;51.99;101392.41;5059603;28;2898;-59
2022/08/29 00:55:12;;;;;;;;;;;;;;;22.97;51.95;101387.38;5056107;28;2903;-59
2022/08/29 00:57:39;;;;;;;;;;;;;;;22.98;51.91;101388.88;5048120;28;2910;-59
2022/08/29 01:00:06;;;;;;;;;;;;;;;22.99;51.90;101381.72;5052638;28;2836;-59
2022/08/29 01:02:32;;;;;;;;;;;;;;;22.97;51.79;101381.59;5055986;28;2944;-59
2022/08/29 01:05:06;;;;;;;;;;;;;;;22.97;51.91;101378.72;5054545;28;2768;-59
2022/08/29 01:07:33;;;;;;;;;;;;;;;22.97;51.55;101383.75;5048873;28;2855;-58
2022/08/29 01:10:03;;;;;;;;;;;;;;;22.76;50.63;101382.13;5058340;28;2831;-58
2022/08/29 01:12:39;;;;;;;;;;;;;;;22.39;49.92;101389.13;5050850;28;2835;-59
2022/08/29 01:15:07;;;;;;;;;;;;;;;22.51;49.78;101389.66;5055750;28;3000;-59
2022/08/29 01:17:35;;;;;;;;;;;;;;;22.68;49.92;101391.16;5052687;28;2818;-59
2022/08/29 01:20:07;;;;;;;;;;;;;;;22.77;50.21;101398.78;5050742;28;2884;-59
2022/08/29 01:22:33;;;;;;;;;;;;;;;22.84;50.28;101407.72;5048472;28;3201;-59
2022/08/29 01:25:00;;;;;;;;;;;;;;;22.84;50.70;101401.94;5050550;28;2901;-59
2022/08/29 01:27:28;;;;;;;;;;;;;;;22.94;50.73;101402.41;5051649;28;2784;-59
2022/08/29 01:29:54;;;;;;;;;;;;;;;23.02;50.24;101413.59;5045812;28;2784;-59
2022/08/29 01:32:22;;;;;;;;;;;;;;;22.91;50.39;101407.34;5047814;28;2859;-59
2022/08/29 01:34:48;;;;;;;;;;;;;;;22.89;50.45;101407.25;5051173;28;3080;-59
2022/08/29 01:37:14;;;;;;;;;;;;;;;22.95;50.95;101407.53;5056367;28;2890;-59
2022/08/29 01:39:41;;;;;;;;;;;;;;;22.90;51.02;101417.41;5052246;28;2898;-59
2022/08/29 01:42:15;;;;;;;;;;;;;;;22.83;50.79;101417.78;5051918;28;2911;-59
2022/08/29 01:44:48;;;;;;;;;;;;;;;22.84;50.58;101419.25;5055129;28;2780;-59
2022/08/29 01:47:17;;;;;;;;;;;;;;;22.78;50.66;101422.63;5054323;28;2753;-59
2022/08/29 01:49:44;;;;;;;;;;;;;;;22.77;50.55;101421.16;5054212;28;2777;-59
2022/08/29 01:52:11;;;;;;;;;;;;;;;22.76;51.05;101426.16;5056839;28;2789;-59
2022/08/29 01:54:41;;;;;;;;;;;;;;;22.77;51.23;101424.03;5050361;28;2722;-59
2022/08/29 01:57:07;;;;;;;;;;;;;;;22.77;51.00;101432.72;5054313;28;2673;-59
2022/08/29 01:59:38;;;;;;;;;;;;;;;22.77;51.20;101430.56;5053164;28;2737;-59
2022/08/29 02:02:06;;;;;;;;;;;;;;;22.77;51.00;101426.94;5053620;28;2780;-59
2022/08/29 02:04:33;;;;;;;;;;;;;;;22.77;51.13;101432.72;5052005;28;2873;-59
2022/08/29 02:06:59;;;;;;;;;;;;;;;22.77;51.38;101426.94;5053587;28;2823;-59
2022/08/29 02:09:26;;;;;;;;;;;;;;;22.76;51.31;101425.44;5053106;28;2791;-59
2022/08/29 02:11:53;;;;;;;;;;;;;;;22.78;51.47;101439.97;5050873;28;2764;-59
2022/08/29 02:14:19;;;;;;;;;;;;;;;22.77;51.20;101429.81;5051652;28;2900;-59
2022/08/29 02:16:46;;;;;;;;;;;;;;;22.78;51.11;101428.41;5047699;28;3050;-60
2022/08/29 02:19:13;;;;;;;;;;;;;;;22.81;50.97;101424.19;5051410;28;2777;-60
2022/08/29 02:21:39;;;;;;;;;;;;;;;22.79;51.28;101424.09;5051867;28;2816;-60
2022/08/29 02:24:06;;;;;;;;;;;;;;;22.83;51.16;101421.41;5045292;28;2916;-60
2022/08/29 02:26:50;;;;;;;;;;;;;;;22.80;51.35;101425.63;5057307;28;2777;-60
2022/08/29 02:29:16;;;;;;;;;;;;;;;22.82;51.06;101422.81;5049691;28;2895;-60
2022/08/29 02:31:43;;;;;;;;;;;;;;;22.85;51.26;101426.53;5053455;28;2812;-60
2022/08/29 02:34:09;;;;;;;;;;;;;;;22.83;51.24;101430.06;5052916;28;2748;-60
2022/08/29 02:36:36;;;;;;;;;;;;;;;22.80;51.20;101419.84;5053326;28;2944;-60
2022/08/29 02:39:06;;;;;;;;;;;;;;;22.81;51.03;101421.31;5049918;28;3008;-60
2022/08/29 02:41:32;;;;;;;;;;;;;;;22.79;51.01;101422.00;5050754;28;2847;-60
2022/08/29 02:43:59;;;;;;;;;;;;;;;22.80;51.00;101428.50;5050768;28;2859;-60
2022/08/29 02:46:25;;;;;;;;;;;;;;;22.79;51.05;101424.09;5053799;28;2915;-60
2022/08/29 02:48:53;;;;;;;;;;;;;;;22.76;50.84;101436.97;5049057;28;2906;-60
2022/08/29 02:51:27;;;;;;;;;;;;;;;22.75;51.28;101418.16;5052214;28;2910;-60
2022/08/29 02:53:53;;;;;;;;;;;;;;;22.72;51.12;101419.47;5047239;28;2859;-60
2022/08/29 02:56:20;;;;;;;;;;;;;;;22.74;51.14;101422.44;5047600;28;2828;-60
2022/08/29 02:58:46;;;;;;;;;;;;;;;22.75;50.90;101423.94;5054681;28;2839;-60
2022/08/29 03:01:13;;;;;;;;;;;;;;;22.77;50.87;101426.94;5050539;28;2840;-60
2022/08/29 03:03:39;;;;;;;;;;;;;;;22.74;51.06;101416.66;5048750;28;2807;-60
2022/08/29 03:06:06;;;;;;;;;;;;;;;22.74;50.97;101422.44;5052495;28;2879;-60
2022/08/29 03:08:33;;;;;;;;;;;;;;;22.71;50.67;101426.66;5050504;28;3055;-60
2022/08/29 03:11:01;;;;;;;;;;;;;;;22.71;51.13;101424.50;5054719;28;2887;-60
2022/08/29 03:13:27;;;;;;;;;;;;;;;22.73;50.78;101432.50;5048668;28;3025;-60
2022/08/29 03:15:53;;;;;;;;;;;;;;;22.73;50.91;101432.50;5047983;28;2836;-60
2022/08/29 03:18:20;;;;;;;;;;;;;;;22.72;50.76;101422.34;5053518;28;3101;-60
2022/08/29 03:20:47;;;;;;;;;;;;;;;22.71;50.97;101429.53;5055834;28;2923;-60
2022/08/29 03:23:14;;;;;;;;;;;;;;;22.70;50.60;101434.56;5051970;28;2855;-60
2022/08/29 03:25:41;;;;;;;;;;;;;;;22.69;50.81;101433.06;5053490;28;2689;-60
2022/08/29 03:28:07;;;;;;;;;;;;;;;22.71;50.69;101423.75;5053113;28;2731;-60
2022/08/29 03:30:33;;;;;;;;;;;;;;;22.70;50.36;101422.25;5055265;28;2756;-60
2022/08/29 03:33:01;;;;;;;;;;;;;;;22.68;50.65;101419.28;5054321;28;2840;-60
2022/08/29 03:35:27;;;;;;;;;;;;;;;22.68;51.09;101414.25;5051766;28;2779;-60
2022/08/29 03:37:54;;;;;;;;;;;;;;;22.68;50.62;101420.03;5050115;28;2800;-60
2022/08/29 03:40:20;;;;;;;;;;;;;;;22.65;50.92;101414.81;5049320;28;2820;-60
2022/08/29 03:42:46;;;;;;;;;;;;;;;22.63;50.71;101412.59;5049642;28;2803;-60
2022/08/29 03:45:14;;;;;;;;;;;;;;;22.64;50.58;101407.56;5051959;28;2900;-60
2022/08/29 03:47:40;;;;;;;;;;;;;;;22.63;50.79;101417.59;5052297;28;2990;-60
2022/08/29 03:50:07;;;;;;;;;;;;;;;22.63;50.57;101423.38;5050951;28;2887;-60
2022/08/29 03:52:33;;;;;;;;;;;;;;;22.64;50.48;101413.34;5050455;28;2876;-60
2022/08/29 03:55:00;;;;;;;;;;;;;;;22.64;50.45;101410.44;5054149;28;2772;-60
2022/08/29 03:57:26;;;;;;;;;;;;;;;22.62;50.92;101411.09;5057344;28;3314;-60
2022/08/29 03:59:55;;;;;;;;;;;;;;;22.63;50.77;101417.59;5058879;28;2803;-60
2022/08/29 04:02:22;;;;;;;;;;;;;;;22.61;50.48;101415.38;5053751;28;3363;-60
2022/08/29 04:05:06;;;;;;;;;;;;;;;22.62;50.77;101416.13;5058128;28;2685;-60
2022/08/29 04:07:53;;;;;;;;;;;;;;;22.61;50.62;101421.16;5051264;28;3326;-60
2022/08/29 04:10:24;;;;;;;;;;;;;;;22.61;50.70;101414.63;5057253;28;2733;-60
2022/08/29 04:12:50;;;;;;;;;;;;;;;22.61;51.02;101420.38;5059104;28;2585;-60
2022/08/29 04:15:20;;;;;;;;;;;;;;;22.59;50.84;101421.06;5055444;28;2788;-60
2022/08/29 04:17:46;;;;;;;;;;;;;;;22.60;51.09;101422.53;5054948;28;3248;-60
2022/08/29 04:20:18;;;;;;;;;;;;;;;22.64;50.70;101427.75;5059896;28;2834;-60
2022/08/29 04:22:50;;;;;;;;;;;;;;;22.63;50.67;101421.25;5050775;28;3204;-60
2022/08/29 04:25:16;;;;;;;;;;;;;;;22.58;50.72;101428.94;5052153;28;2827;-60
2022/08/29 04:27:43;;;;;;;;;;;;;;;22.58;50.74;101431.84;5053078;28;2872;-60
2022/08/29 04:30:14;;;;;;;;;;;;;;;22.58;50.70;101428.94;5051428;28;2827;-60
2022/08/29 04:32:40;;;;;;;;;;;;;;;22.58;50.73;101434.00;5053041;28;2971;-60
2022/08/29 04:35:07;;;;;;;;;;;;;;;22.55;51.23;101436.03;5048061;28;3038;-62
2022/08/29 04:37:33;;;;;;;;;;;;;;;22.57;51.31;101435.41;5054037;28;3404;-62
2022/08/29 04:40:00;;;;;;;;;;;;;;;22.56;51.31;101431.78;5053441;28;2858;-64
2022/08/29 04:42:27;;;;;;;;;;;;;;;22.67;50.84;101435.13;5049083;28;3033;-63
2022/08/29 04:44:53;;;;;;;;;;;;;;;22.53;50.95;101441.72;5059201;28;3152;-65
2022/08/29 04:47:21;;;;;;;;;;;;;;;22.47;51.40;101444.34;5056653;28;2994;-63
2022/08/29 04:49:48;;;;;;;;;;;;;;;22.24;50.52;101445.41;5050445;28;3266;-61
2022/08/29 04:52:19;;;;;;;;;;;;;;;21.84;50.97;101449.91;5053505;28;3142;-67
2022/08/29 04:54:46;;;;;;;;;;;;;;;22.09;52.31;101451.84;5050139;28;3059;-64
2022/08/29 04:57:12;;;;;;;;;;;;;;;22.26;50.80;101445.50;5057732;28;2848;-62
2022/08/29 04:59:38;;;;;;;;;;;;;;;22.33;50.69;101440.75;5051167;28;3102;-62
2022/08/29 05:02:05;;;;;;;;;;;;;;;22.37;50.76;101435.91;5053393;28;3572;-62
2022/08/29 05:04:31;;;;;;;;;;;;;;;22.36;50.52;101430.81;5056434;28;2832;-62
2022/08/29 05:06:58;;;;;;;;;;;;;;;22.36;50.80;101430.81;5049288;28;2851;-62
2022/08/29 05:09:24;;;;;;;;;;;;;;;22.36;50.67;101430.81;5047528;28;2884;-62
2022/08/29 05:11:50;;;;;;;;;;;;;;;22.35;50.97;101424.28;5053192;28;2820;-62
2022/08/29 05:14:17;;;;;;;;;;;;;;;22.30;51.23;101436.28;5049946;28;2812;-62
2022/08/29 05:16:44;;;;;;;;;;;;;;;22.36;51.34;101436.59;5049471;28;2769;-64
2022/08/29 05:19:10;;;;;;;;;;;;;;;22.43;53.59;101438.38;5051273;28;2775;-67
2022/08/29 05:21:41;;;;;;;;;;;;;;;22.65;53.26;101437.91;5051017;28;2930;-65
2022/08/29 05:24:08;;;;;;;;;;;;;;;22.74;52.79;101445.53;5056326;28;2682;-67
2022/08/29 05:26:36;;;;;;;;;;;;;;;22.81;52.29;101444.41;5057647;28;2576;-66
2022/08/29 05:29:04;;;;;;;;;;;;;;;22.74;52.18;101448.44;5057953;28;2850;-61
2022/08/29 05:31:35;;;;;;;;;;;;;;;22.79;52.01;101442.19;5058847;28;2699;-63
2022/08/29 05:34:02;;;;;;;;;;;;;;;22.80;51.99;101448.72;5057339;28;2705;-63
2022/08/29 05:36:48;;;;;;;;;;;;;;;22.82;51.98;101445.91;5055384;28;3176;-62
2022/08/29 05:39:15;;;;;;;;;;;;;;;22.88;51.30;101445.44;5055681;28;2882;-62
2022/08/29 05:41:41;;;;;;;;;;;;;;;22.89;51.42;101446.94;5058145;28;2281;-61
2022/08/29 05:44:07;;;;;;;;;;;;;;;22.78;51.21;101445.72;5054100;28;2756;-62
2022/08/29 05:46:34;;;;;;;;;;;;;;;22.59;52.24;101444.91;5048612;28;2936;-58
2022/08/29 05:49:01;;;;;;;;;;;;;;;22.52;52.14;101453.94;5050605;28;3122;-61
2022/08/29 05:51:27;;;;;;;;;;;;;;;22.40;52.68;101453.34;5049669;28;2991;-60
2022/08/29 05:53:54;;;;;;;;;;;;;;;22.49;52.33;101455.22;5050063;28;3088;-63
2022/08/29 05:56:21;;;;;;;;;;;;;;;21.97;52.76;101457.78;5054978;28;2786;-64
2022/08/29 05:58:48;;;;;;;;;;;;;;;21.50;53.58;101459.03;5049962;28;2752;-59
2022/08/29 06:01:18;;;;;;;;;;;;;;;21.40;54.22;101464.31;5048378;28;2954;-60
2022/08/29 06:03:45;;;;;;;;;;;;;;;21.41;54.19;101470.81;5044379;28;2803;-57
2022/08/29 06:06:11;;;;;;;;;;;;;;;21.34;54.22;101467.56;5048590;28;2908;-59
2022/08/29 06:08:38;;;;;;;;;;;;;;;21.18;54.40;101466.72;5053107;28;2640;-60
2022/08/29 06:11:04;;;;;;;;;;;;;;;21.47;53.80;101462.47;5050931;28;2702;-60
2022/08/29 06:13:30;;;;;;;;;;;;;;;21.64;53.67;101467.66;5057897;28;1646;-61
2022/08/29 06:15:57;;;;;;;;;;;;;;;21.85;53.23;101471.56;5055446;28;1865;-60
2022/08/29 06:18:23;;;;;;;;;;;;;;;21.94;52.92;101461.94;5055203;28;2695;-61
2022/08/29 06:21:04;;;;;;;;;;;;;;;22.02;53.00;101465.22;5056687;28;2613;-60
2022/08/29 06:23:30;;;;;;;;;;;;;;;22.01;53.02;101472.38;5057777;28;1661;-60
2022/08/29 06:25:57;;;;;;;;;;;;;;;22.05;52.56;101475.47;5051539;28;1837;-61
2022/08/29 06:28:30;;;;;;;;;;;;;;;22.07;52.79;101475.56;5057628;28;1906;-61
2022/08/29 06:30:56;;;;;;;;;;;;;;;22.10;52.98;101480.03;5054130;28;2569;-62
2022/08/29 06:33:23;;;;;;;;;;;;;;;22.09;52.68;101484.31;5054863;28;1821;-61
2022/08/29 06:35:49;;;;;;;;;;;;;;;22.05;53.04;101495.66;5049612;28;1709;-61
2022/08/29 06:38:15;;;;;;;;;;;;;;;22.09;52.86;101486.47;5046413;28;1768;-60
2022/08/29 06:40:42;;;;;;;;;;;;;;;22.12;53.09;101490.94;5054449;28;2347;-61
2022/08/29 06:43:09;;;;;;;;;;;;;;;22.12;52.82;101500.31;5050693;28;2314;-61
2022/08/29 06:45:38;;;;;;;;;;;;;;;22.09;53.15;101498.75;5053495;28;2542;-61
2022/08/29 06:48:05;;;;;;;;;;;;;;;22.10;53.06;101496.59;5055466;28;2235;-60
2022/08/29 06:50:31;;;;;;;;;;;;;;;22.09;53.32;101507.41;5052008;28;2363;-60
2022/08/29 06:52:58;;;;;;;;;;;;;;;22.08;53.33;101497.25;5055650;28;2801;-60
2022/08/29 06:55:45;;;;;;;;;;;;;;;22.12;53.29;101499.59;5052771;28;2609;-61
2022/08/29 06:58:11;;;;;;;;;;;;;;;22.03;53.58;101498.44;5053866;28;2405;-60
2022/08/29 07:00:39;;;;;;;;;;;;;;;22.08;53.53;101508.81;5054898;28;2756;-61
2022/08/29 07:03:05;;;;;;;;;;;;;;;22.08;53.72;101511.69;5053752;28;2572;-61
2022/08/29 07:05:32;;;;;;;;;;;;;;;22.07;53.58;101503.66;5052118;28;1626;-60
2022/08/29 07:07:58;;;;;;;;;;;;;;;22.16;53.43;101514.22;5053857;28;2421;-59
2022/08/29 07:10:24;;;;;;;;;;;;;;;22.14;53.52;101520.63;5050056;28;2451;-59
2022/08/29 07:12:51;;;;;;;;;;;;;;;22.15;53.84;101510.59;5040680;28;2681;-59
2022/08/29 07:15:18;;;;;;;;;;;;;;;22.13;53.90;101510.50;5053413;28;2658;-60
2022/08/29 07:17:44;;;;;;;;;;;;;;;22.14;54.03;101517.72;5054097;28;3129;-60
2022/08/29 07:20:10;;;;;;;;;;;;;;;22.15;54.14;101519.25;5055347;28;2664;-59
2022/08/29 07:22:37;;;;;;;;;;;;;;;22.13;53.99;101518.41;5057275;28;1898;-60
2022/08/29 07:25:03;;;;;;;;;;;;;;;22.17;54.22;101519.34;5053977;28;3270;-60
2022/08/29 07:27:30;;;;;;;;;;;;;;;22.17;54.16;101522.22;5051444;28;2819;-61
2022/08/29 07:29:56;;;;;;;;;;;;;;;22.20;54.19;101517.31;5059055;28;2690;-59
2022/08/29 07:32:23;;;;;;;;;;;;;;;22.19;54.48;101524.44;5059663;28;2704;-60
2022/08/29 07:34:51;;;;;;;;;;;;;;;22.31;54.29;101515.66;5060012;28;2670;-55
2022/08/29 07:37:21;;;;;;;;;;;;;;;22.29;54.80;101521.38;5056861;28;2772;-58
2022/08/29 07:39:47;;;;;;;;;;;;;;;22.26;54.61;101514.72;5059594;28;2659;-57
2022/08/29 07:42:14;;;;;;;;;;;;;;;22.22;54.70;101525.31;5059627;28;2751;-57
2022/08/29 07:44:40;;;;;;;;;;;;;;;22.16;54.84;101522.88;5061072;28;2983;-58
2022/08/29 07:47:07;;;;;;;;;;;;;;;22.15;55.13;101527.13;5057296;28;3205;-58
2022/08/29 07:49:33;;;;;;;;;;;;;;;22.24;54.92;101534.06;5058298;28;2627;-58
2022/08/29 07:52:06;;;;;;;;;;;;;;;22.24;54.63;101539.84;5060251;28;2580;-58
2022/08/29 07:54:33;;;;;;;;;;;;;;;22.24;54.89;101539.84;5058199;28;2812;-65
2022/08/29 07:56:59;;;;;;;;;;;;;;;22.25;54.82;101547.13;5058284;28;2784;-60
2022/08/29 07:59:26;;;;;;;;;;;;;;;22.24;55.00;101539.84;5055037;28;2660;-60
2022/08/29 08:01:52;;;;;;;;;;;;;;;22.25;54.89;101542.09;5056222;28;2727;-61
2022/08/29 08:04:19;;;;;;;;;;;;;;;22.27;54.86;101538.56;5058599;28;1529;-60
2022/08/29 08:06:45;;;;;;;;;;;;;;;22.23;55.28;101544.13;5059243;28;2653;-60
2022/08/29 08:09:14;;;;;;;;;;;;;;;22.23;55.33;101544.13;5057170;28;2628;-60
2022/08/29 08:11:40;;;;;;;;;;;;;;;22.23;55.18;101542.00;5058915;28;1522;-61
2022/08/29 08:14:06;;;;;;;;;;;;;;;22.27;55.10;101545.09;5056885;28;2721;-62
2022/08/29 08:16:33;;;;;;;;;;;;;;;22.29;55.09;101547.34;5058122;28;2540;-61
2022/08/29 08:18:59;;;;;;;;;;;;;;;22.25;55.49;101547.13;5058305;28;2522;-61
2022/08/29 08:21:26;;;;;;;;;;;;;;;22.22;55.47;101548.41;5055612;28;3096;-68
2022/08/29 08:23:52;;;;;;;;;;;;;;;22.07;56.35;101553.44;5050132;28;2883;-60
2022/08/29 08:26:19;;;;;;;;;;;;;;;21.96;56.57;101555.06;5050839;28;2934;-61
2022/08/29 08:28:45;;;;;;;;;;;;;;;22.11;56.14;101556.53;5050790;28;2784;-60
2022/08/29 08:31:12;;;;;;;;;;;;;;;22.20;55.80;101554.06;5053725;28;2788;-61
2022/08/29 08:33:39;;;;;;;;;;;;;;;22.22;55.90;101554.94;5052879;28;2779;-61
2022/08/29 08:36:12;;;;;;;;;;;;;;;22.20;56.10;101557.69;5057398;28;2829;-61
2022/08/29 08:38:38;;;;;;;;;;;;;;;22.23;56.11;101555.69;5053069;28;2799;-61
2022/08/29 08:41:22;;;;;;;;;;;;;;;22.24;56.08;101557.94;5054820;28;2863;-61
2022/08/29 08:43:53;;;;;;;;;;;;;;;22.25;56.05;101553.63;5048736;28;2986;-62
2022/08/29 08:46:27;;;;;;;;;;;;;;;22.29;56.09;101564.66;5055970;28;3102;-62
2022/08/29 08:48:54;;;;;;;;;;;;;;;22.30;56.17;101554.59;5053065;28;2843;-62
2022/08/29 08:51:21;;;;;;;;;;;;;;;22.30;56.16;101560.34;5052955;28;2983;-61
2022/08/29 08:53:49;;;;;;;;;;;;;;;22.31;56.19;101561.84;5055423;28;2835;-62
2022/08/29 08:56:28;;;;;;;;;;;;;;;22.32;56.26;101566.22;5052620;28;2944;-61
2022/08/29 08:58:56;;;;;;;;;;;;;;;22.34;56.30;101560.56;5058877;28;2465;-61
2022/08/29 09:01:25;;;;;;;;;;;;;;;22.30;56.27;101560.34;5059351;28;1673;-61
2022/08/29 09:04:09;;;;;;;;;;;;;;;22.30;56.04;101563.97;5055521;28;2655;-61
2022/08/29 09:06:41;;;;;;;;;;;;;;;22.28;56.50;101563.13;5057385;28;2611;-61
2022/08/29 09:09:11;;;;;;;;;;;;;;;22.30;56.72;101566.13;5052300;28;2740;-61
2022/08/29 09:12:09;;;;;;;;;;;;;;;22.28;56.85;101563.88;5054053;28;2794;-61
2022/08/29 09:14:39;;;;;;;;;;;;;;;22.31;56.52;101564.72;5042206;28;2898;-61
2022/08/29 09:17:06;;;;;;;;;;;;;;;22.32;56.80;101574.88;5047396;28;2847;-61
2022/08/29 09:19:32;;;;;;;;;;;;;;;22.30;56.85;101572.63;5054865;28;2755;-61
2022/08/29 09:22:00;;;;;;;;;;;;;;;22.33;56.57;101564.81;5058478;28;2908;-61
2022/08/29 09:24:35;;;;;;;;;;;;;;;22.35;56.78;101570.69;5057569;28;2732;-61
2022/08/29 09:27:01;;;;;;;;;;;;;;;22.35;56.66;101573.59;5055900;28;2827;-62
2022/08/29 09:29:28;;;;;;;;;;;;;;;22.35;56.93;101570.69;5058522;28;2463;-61
2022/08/29 09:32:02;;;;;;;;;;;;;;;22.36;56.75;101575.09;5056845;28;2576;-62
2022/08/29 09:34:36;;;;;;;;;;;;;;;22.36;57.05;101569.31;5053920;28;2593;-61
2022/08/29 09:37:24;;;;;;;;;;;;;;;22.32;57.05;101574.88;5054758;28;2812;-61
2022/08/29 09:39:51;;;;;;;;;;;;;;;22.32;57.10;101574.88;5053214;28;3046;-61
2022/08/29 09:42:20;;;;;;;;;;;;;;;22.30;57.34;101572.63;5054289;28;2811;-61
2022/08/29 09:44:53;;;;;;;;;;;;;;;22.26;57.67;101571.69;5054935;28;2866;-62
2022/08/29 09:47:20;;;;;;;;;;;;;;;22.27;58.24;101578.97;5053530;28;2784;-59
2022/08/29 09:50:04;;;;;;;;;;;;;;;22.16;58.76;101580.56;5054727;28;2843;-61
2022/08/29 09:52:31;;;;;;;;;;;;;;;22.13;59.02;101584.75;5055687;28;2863;-61
2022/08/29 09:54:57;;;;;;;;;;;;;;;22.23;58.48;101585.28;5057001;28;2732;-61
2022/08/29 09:57:24;;;;;;;;;;;;;;;22.28;58.06;101586.22;5054261;28;2855;-60
2022/08/29 10:00:06;;;;;;;;;;;;;;;22.34;58.04;101580.75;5052838;28;2953;-61
2022/08/29 10:02:37;;;;;;;;;;;;;;;22.36;57.93;101577.97;5052843;28;2852;-61
2022/08/29 10:05:11;;;;;;;;;;;;;;;22.38;57.95;101578.09;5057362;28;2834;-61
2022/08/29 10:07:45;;;;;;;;;;;;;;;22.38;57.84;101578.09;5055463;28;3185;-61
2022/08/29 10:10:15;;;;;;;;;;;;;;;22.37;58.15;101588.13;5053066;28;2640;-61
2022/08/29 10:12:46;;;;;;;;;;;;;;;22.35;58.03;101585.13;5053374;28;2926;-61
2022/08/29 10:15:32;;;;;;;;;;;;;;;22.36;57.88;101586.63;5049944;28;3239;-61
2022/08/29 10:18:27;;;;;;;;;;;;;;;22.51;57.84;101573.63;5056997;28;3361;-60
2022/08/29 10:21:12;;;;;;;;;;;;;;;22.69;58.05;101577.41;5052293;28;3445;-63
2022/08/29 10:23:44;;;;;;;;;;;;;;;22.76;57.57;101581.34;5049931;28;2855;-64
2022/08/29 10:26:29;;;;;;;;;;;;;;;22.74;57.47;101572.56;5039350;28;3339;-61
2022/08/29 10:28:59;;;;;;;;;;;;;;;22.77;57.92;101568.41;5043171;28;3453;-62
2022/08/29 10:31:31;;;;;;;;;;;;;;;22.89;57.35;101571.13;5053100;28;3031;-63
2022/08/29 10:34:01;;;;;;;;;;;;;;;22.82;57.11;101575.88;5053044;28;3027;-63
2022/08/29 10:36:30;;;;;;;;;;;;;;;22.84;57.55;101581.75;5052305;28;2968;-62
2022/08/29 10:39:09;;;;;;;;;;;;;;;22.93;57.51;101580.72;5053663;28;2976;-62
2022/08/29 10:41:52;;;;;;;;;;;;;;;23.02;57.23;101584.78;5052285;28;2930;-62
2022/08/29 10:44:23;;;;;;;;;;;;;;;23.03;56.89;101591.28;5045714;28;2929;-59
2022/08/29 10:46:52;;;;;;;;;;;;;;;23.12;56.76;101590.28;5050751;28;2959;-59
2022/08/29 10:49:34;;;;;;;;;;;;;;;23.17;56.72;101600.63;5051996;28;2974;-61
2022/08/29 10:52:02;;;;;;;;;;;;;;;23.24;56.49;101590.09;5050964;28;2961;-61
2022/08/29 10:54:48;;;;;;;;;;;;;;;23.28;56.33;101588.13;5053292;28;2913;-59
2022/08/29 10:57:28;;;;;;;;;;;;;;;23.31;56.37;101589.72;5052944;28;2983;-60
2022/08/29 10:59:58;;;;;;;;;;;;;;;23.34;55.99;101591.31;5047449;28;2918;-60
2022/08/29 11:02:27;;;;;;;;;;;;;;;23.39;56.25;101583.56;5054318;28;2961;-62
2022/08/29 11:04:55;;;;;;;;;;;;;;;23.47;56.07;101591.84;5051557;28;2905;-62
2022/08/29 11:07:25;;;;;;;;;;;;;;;23.34;55.86;101591.31;5057546;28;2721;-63
2022/08/29 11:09:53;;;;;;;;;;;;;;;22.99;56.98;101586.78;5052981;28;2770;-65
2022/08/29 11:12:20;;;;;;;;;;;;;;;22.93;57.08;101582.84;5050492;28;2666;-66
2022/08/29 11:15:01;;;;;;;;;;;;;;;22.94;57.37;101579.31;5055123;28;2629;-67
2022/08/29 11:17:31;;;;;;;;;;;;;;;23.21;56.97;101578.44;5055626;28;2469;-62
2022/08/29 11:20:10;;;;;;;;;;;;;;;23.32;56.45;101576.00;5057031;28;1567;-62
2022/08/29 11:22:50;;;;;;;;;;;;;;;23.39;55.85;101575.63;5056548;28;2962;-62
2022/08/29 11:25:17;;;;;;;;;;;;;;;23.39;56.27;101569.84;5055030;28;3115;-67
2022/08/29 11:27:56;;;;;;;;;;;;;;;23.41;55.87;101572.84;5059419;28;2891;-65
2022/08/29 11:30:26;;;;;;;;;;;;;;;23.46;55.88;101568.00;5056115;28;2941;-65
2022/08/29 11:33:16;;;;;;;;;;;;;;;23.49;55.91;101563.03;5056908;28;2886;-64
2022/08/29 11:36:04;;;;;;;;;;;;;;;23.44;55.75;101576.56;5051141;28;2847;-64
2022/08/29 11:38:37;;;;;;;;;;;;;;;23.75;55.33;101563.47;5055354;28;2316;-63
2022/08/29 11:41:23;;;;;;;;;;;;;;;23.77;55.55;101561.41;5051970;28;2635;-64
2022/08/29 11:43:55;;;;;;;;;;;;;;;23.80;55.05;101568.78;5055874;28;1715;-64
2022/08/29 11:46:32;;;;;;;;;;;;;;;23.41;55.73;101564.16;5051860;28;2777;-67
2022/08/29 11:49:17;;;;;;;;;;;;;;;23.24;56.61;101564.81;5052820;28;3197;-62
2022/08/29 11:51:45;;;;;;;;;;;;;;;23.12;56.66;101564.28;5052260;28;2761;-63
2022/08/29 11:54:32;;;;;;;;;;;;;;;23.11;56.88;101568.53;5053377;28;2870;-64
2022/08/29 11:56:58;;;;;;;;;;;;;;;23.07;56.65;101565.50;5029381;28;3026;-64
2022/08/29 11:59:43;;;;;;;;;;;;;;;23.45;56.94;101577.31;5054242;28;2800;-63
2022/08/29 12:02:10;;;;;;;;;;;;;;;23.80;56.43;101565.91;5049645;28;2845;-64
2022/08/29 12:04:55;;;;;;;;;;;;;;;23.86;55.66;101562.50;5055029;28;2826;-64
2022/08/29 12:07:30;;;;;;;;;;;;;;;23.90;55.30;101573.53;5049597;28;3311;-61
2022/08/29 12:09:57;;;;;;;;;;;;;;;23.97;55.28;101566.59;5052720;28;3105;-62
2022/08/29 12:12:36;;;;;;;;;;;;;;;24.16;55.06;101571.00;5053619;28;3303;-62
2022/08/29 12:15:22;;;;;;;;;;;;;;;23.97;55.09;101569.50;5050844;28;2779;-63
2022/08/29 12:17:48;;;;;;;;;;;;;;;23.88;55.58;101570.53;5050266;28;3165;-63
2022/08/29 12:20:30;;;;;;;;;;;;;;;24.10;54.64;101567.84;5053752;28;3089;-63
2022/08/29 12:23:09;;;;;;;;;;;;;;;24.04;54.98;101563.28;5052872;28;2830;-64
2022/08/29 12:25:45;;;;;;;;;;;;;;;24.09;54.75;101561.31;5053282;28;3424;-61
2022/08/29 12:28:19;;;;;;;;;;;;;;;24.10;54.83;101559.94;5056470;28;2803;-62
2022/08/29 12:30:46;;;;;;;;;;;;;;;24.17;54.53;101555.88;5055988;28;2750;-61
2022/08/29 12:33:19;;;;;;;;;;;;;;;24.20;54.47;101566.13;5051430;28;2952;-61
2022/08/29 12:35:59;;;;;;;;;;;;;;;24.15;54.34;101558.69;5055046;28;3219;-62
2022/08/29 12:38:48;;;;;;;;;;;;;;;24.18;54.35;101557.34;5048585;28;3077;-61
2022/08/29 12:41:18;;;;;;;;;;;;;;;24.21;54.00;101544.47;5056172;28;2822;-62
2022/08/29 12:43:45;;;;;;;;;;;;;;;24.22;54.09;101545.97;5058006;28;2906;-64
2022/08/29 12:46:31;;;;;;;;;;;;;;;24.17;54.17;101543.56;5053282;28;2790;-67
2022/08/29 12:49:19;;;;;;;;;;;;;;;23.61;55.56;101543.34;5054826;28;2963;-66
2022/08/29 12:51:47;;;;;;;;;;;;;;;23.56;55.53;101547.44;5042328;28;3282;-71
2022/08/29 12:54:14;;;;;;;;;;;;;;;23.44;56.39;101541.13;5055168;28;2723;-65
2022/08/29 12:56:41;;;;;;;;;;;;;;;23.46;56.36;101538.34;5054925;28;2766;-72
2022/08/29 12:59:11;;;;;;;;;;;;;;;23.40;57.23;101542.44;5054297;28;3070;-66
2022/08/29 13:01:37;;;;;;;;;;;;;;;23.78;56.39;101545.56;5060842;28;2957;-66